Time;durP1;ratioP1;P1;durP2;ratioP2;P2;SDS_P1;SDS_P2;PMS_P1;PMS_P2;Temp;Humidity;BMP_temperature;BMP_pressure;BME280_temperature;BME280_humidity;BME280_pressure;Samples;Min_cycle;Max_cycle;Signal;HPM_P1;HPM_P2
2021/06/19 00:02:11;;;;;;;11.70;5.90;;;24.10;99.90;;;;;;4994083;28;20025;-82
2021/06/19 00:05:21;;;;;;;6.82;5.65;;;24.10;99.90;;;;;;4970824;28;20041;-81
2021/06/19 00:07:59;;;;;;;13.57;6.85;;;24.10;99.90;;;;;;4936839;29;20088;-82
2021/06/19 00:10:35;;;;;;;9.82;5.75;;;24.20;99.90;;;;;;4953526;28;20077;-82
2021/06/19 00:13:01;;;;;;;9.48;5.82;;;24.10;99.90;;;;;;4993304;28;20029;-81
2021/06/19 00:15:29;;;;;;;7.82;5.78;;;24.10;99.90;;;;;;4993873;28;20027;-82
2021/06/19 00:17:55;;;;;;;10.07;6.47;;;24.00;99.90;;;;;;4992984;28;20030;-82
2021/06/19 00:20:24;;;;;;;8.63;5.90;;;24.00;99.90;;;;;;4993673;28;20023;-82
2021/06/19 00:22:51;;;;;;;9.45;6.32;;;24.00;99.90;;;;;;4993957;28;20014;-81
2021/06/19 00:26:18;;;;;;;7.85;6.10;;;24.00;99.90;;;;;;4993422;28;20109;-82
2021/06/19 00:28:45;;;;;;;14.38;7.03;;;24.00;99.90;;;;;;4941377;28;20042;-81
2021/06/19 00:31:11;;;;;;;11.13;6.20;;;23.90;99.90;;;;;;4993323;28;20015;-82
2021/06/19 00:33:37;;;;;;;14.10;6.20;;;23.90;99.90;;;;;;4993030;28;20026;-82
2021/06/19 00:36:05;;;;;;;9.38;6.50;;;23.90;99.90;;;;;;4993604;28;20023;-82
2021/06/19 00:38:31;;;;;;;14.38;7.32;;;23.80;99.90;;;;;;4993366;28;20042;-81
2021/06/19 00:41:00;;;;;;;9.30;6.22;;;23.80;99.90;;;;;;4992657;28;20026;-81
2021/06/19 00:43:26;;;;;;;14.30;6.55;;;23.70;99.90;;;;;;4993079;28;20029;-82
2021/06/19 00:45:52;;;;;;;13.90;6.15;;;23.60;99.90;;;;;;4993486;28;20073;-81
2021/06/19 00:48:26;;;;;;;10.18;6.47;;;23.60;99.90;;;;;;4993889;28;20033;-81
2021/06/19 00:50:52;;;;;;;8.82;5.93;;;23.50;99.90;;;;;;4993141;28;20022;-80
2021/06/19 00:53:32;;;;;;;11.95;6.18;;;23.40;99.90;;;;;;4993199;28;20490;-81
2021/06/19 00:56:00;;;;;;;6.75;5.60;;;23.40;99.90;;;;;;4992735;28;20054;-81
2021/06/19 00:58:26;;;;;;;8.20;6.30;;;23.40;99.90;;;;;;4992428;28;20046;-81
2021/06/19 01:00:55;;;;;;;18.67;7.00;;;23.30;99.90;;;;;;4983304;28;20022;-81
2021/06/19 01:03:21;;;;;;;9.20;6.10;;;23.30;99.90;;;;;;4993501;28;20383;-82
2021/06/19 01:05:50;;;;;;;13.60;6.38;;;23.40;99.90;;;;;;4993078;28;20018;-87
2021/06/19 01:08:16;;;;;;;6.90;6.03;;;23.40;99.90;;;;;;4992640;28;20026;-81
2021/06/19 01:10:43;;;;;;;7.35;5.88;;;23.40;99.90;;;;;;5002423;28;20023;-82
2021/06/19 01:13:11;;;;;;;7.05;6.28;;;23.50;99.90;;;;;;4992800;28;20084;-81
2021/06/19 01:15:37;;;;;;;9.55;6.65;;;23.50;99.90;;;;;;4992686;28;20022;-81
2021/06/19 01:18:03;;;;;;;9.45;6.78;;;23.50;99.90;;;;;;4992847;28;20085;-81
2021/06/19 01:20:35;;;;;;;12.38;6.70;;;23.40;99.90;;;;;;4992616;28;20076;-87
2021/06/19 01:23:01;;;;;;;8.38;7.20;;;23.40;99.90;;;;;;4992607;28;20032;-81
2021/06/19 01:25:33;;;;;;;9.13;6.80;;;23.40;99.90;;;;;;4992335;28;20072;-81
2021/06/19 01:27:59;;;;;;;8.18;6.47;;;23.40;99.90;;;;;;4991962;28;20022;-81
2021/06/19 01:30:28;;;;;;;9.48;7.05;;;23.30;99.90;;;;;;4992216;28;20034;-82
2021/06/19 01:32:54;;;;;;;15.50;6.40;;;23.30;99.90;;;;;;4993224;28;20018;-84
2021/06/19 01:35:22;;;;;;;9.60;6.05;;;23.30;99.90;;;;;;4990273;28;20165;-81
2021/06/19 01:37:53;;;;;;;15.15;6.40;;;23.30;99.90;;;;;;4989781;28;20467;-82
2021/06/19 01:40:30;;;;;;;11.40;7.18;;;23.30;99.90;;;;;;4992022;28;20391;-82
2021/06/19 01:42:57;;;;;;;11.50;6.75;;;23.20;99.90;;;;;;4991602;28;20391;-82
2021/06/19 01:45:26;;;;;;;15.00;6.82;;;23.20;99.90;;;;;;4992217;28;20022;-85
2021/06/19 01:47:53;;;;;;;18.40;6.57;;;23.10;99.90;;;;;;4992360;28;20023;-81
2021/06/19 01:50:22;;;;;;;8.02;6.63;;;23.10;99.90;;;;;;4975026;28;20030;-81
2021/06/19 01:52:55;;;;;;;11.10;6.50;;;23.10;99.90;;;;;;4991892;28;20022;-84
2021/06/19 01:55:23;;;;;;;8.27;6.75;;;23.00;99.90;;;;;;4991804;28;20054;-81
2021/06/19 01:57:55;;;;;;;9.75;6.45;;;22.90;99.90;;;;;;4991253;28;20157;-82
2021/06/19 02:00:24;;;;;;;;;;;22.90;99.90;;;;;;4992943;28;20034;-81
2021/06/19 02:02:51;;;;;;;9.07;7.18;;;22.90;99.90;;;;;;4974917;28;20373;-87
2021/06/19 02:05:18;;;;;;;12.65;7.95;;;22.90;99.90;;;;;;4992406;28;20056;-87
2021/06/19 02:08:00;;;;;;;11.18;7.05;;;22.90;99.90;;;;;;4991732;28;20026;-82
2021/06/19 02:10:30;;;;;;;11.05;6.53;;;22.90;99.90;;;;;;4991971;28;20026;-80
2021/06/19 02:12:57;;;;;;;9.10;6.80;;;22.80;99.90;;;;;;4991811;28;20031;-83
2021/06/19 02:15:24;;;;;;;14.02;7.30;;;22.80;99.90;;;;;;4992019;28;20026;-85
2021/06/19 02:17:50;;;;;;;9.02;6.97;;;22.80;99.90;;;;;;4990853;28;20038;-81
2021/06/19 02:20:18;;;;;;;10.30;7.32;;;22.70;99.90;;;;;;4992383;28;20069;-81
2021/06/19 02:22:44;;;;;;;11.48;7.38;;;22.60;99.90;;;;;;4992100;28;20019;-82
2021/06/19 02:25:13;;;;;;;11.35;7.47;;;22.60;99.90;;;;;;4991865;28;20102;-81
2021/06/19 02:27:52;;;;;;;9.60;6.90;;;22.50;99.90;;;;;;4992007;28;20101;-80
2021/06/19 02:30:21;;;;;;;10.02;7.25;;;22.50;99.90;;;;;;4991083;28;20438;-82
2021/06/19 02:32:47;;;;;;;12.68;7.00;;;22.50;99.90;;;;;;4991545;28;20015;-81
2021/06/19 02:35:14;;;;;;;15.45;7.30;;;22.50;99.90;;;;;;4991344;28;20035;-81
2021/06/19 02:37:41;;;;;;;15.27;6.70;;;22.50;99.90;;;;;;4992019;28;20384;-82
2021/06/19 02:40:07;;;;;;;9.18;6.85;;;22.50;99.90;;;;;;4991925;28;20479;-81
2021/06/19 02:42:33;;;;;;;10.55;7.15;;;22.50;99.90;;;;;;4995420;28;20026;-86
2021/06/19 02:44:59;;;;;;;12.60;7.05;;;22.50;99.90;;;;;;4995237;28;20029;-81
2021/06/19 02:47:25;;;;;;;12.07;6.43;;;22.50;99.90;;;;;;4995132;28;20015;-88
2021/06/19 02:50:08;;;;;;;9.10;6.60;;;22.50;99.90;;;;;;4995808;28;20018;-82
2021/06/19 02:52:40;;;;;;;8.70;6.60;;;22.40;99.90;;;;;;4995135;28;20097;-82
2021/06/19 02:55:11;;;;;;;8.68;6.70;;;22.40;99.90;;;;;;4995492;28;20553;-83
2021/06/19 02:57:38;;;;;;;11.60;7.10;;;22.30;99.90;;;;;;4995047;28;20050;-82
2021/06/19 03:00:06;;;;;;;13.35;7.95;;;22.30;99.90;;;;;;4995350;28;20281;-83
2021/06/19 03:02:39;;;;;;;12.90;7.38;;;22.30;99.90;;;;;;4994916;28;20058;-81
2021/06/19 03:05:10;;;;;;;12.60;7.63;;;22.30;99.90;;;;;;4995406;28;20032;-82
2021/06/19 03:07:37;;;;;;;;;;;22.20;99.90;;;;;;4995726;28;20026;-81
2021/06/19 03:10:16;;;;;;;8.10;6.38;;;22.20;99.90;;;;;;4995220;28;20448;-83
2021/06/19 03:12:42;;;;;;;8.18;6.82;;;22.20;99.90;;;;;;4994846;28;20487;-88
2021/06/19 03:15:09;;;;;;;9.48;8.07;;;22.20;99.90;;;;;;4994934;28;20480;-81
2021/06/19 03:17:36;;;;;;;11.95;8.13;;;22.20;99.90;;;;;;4994755;28;20483;-82
2021/06/19 03:20:04;;;;;;;9.60;7.28;;;22.20;99.90;;;;;;4981289;28;20022;-88
2021/06/19 03:22:51;;;;;;;12.48;7.35;;;22.20;99.90;;;;;;4994739;28;20028;-81
2021/06/19 03:25:24;;;;;;;12.63;7.97;;;22.20;99.90;;;;;;4982229;28;20029;-84
2021/06/19 03:27:50;;;;;;;9.48;7.40;;;22.20;99.90;;;;;;4994509;28;20066;-82
2021/06/19 03:30:19;;;;;;;9.73;7.72;;;22.20;99.90;;;;;;4994568;28;20393;-85
2021/06/19 03:32:47;;;;;;;9.57;8.07;;;22.20;99.90;;;;;;4994759;28;20025;-82
2021/06/19 03:35:14;;;;;;;13.30;7.78;;;22.20;99.90;;;;;;4994837;28;20664;-82
2021/06/19 03:37:40;;;;;;;13.25;7.97;;;22.20;99.90;;;;;;4994056;28;20019;-81
2021/06/19 03:40:08;;;;;;;8.35;7.40;;;22.20;99.90;;;;;;4994007;28;20627;-85
2021/06/19 03:42:35;;;;;;;11.48;7.65;;;22.20;99.90;;;;;;4992582;28;20022;-82
2021/06/19 03:45:01;;;;;;;13.07;7.82;;;22.20;99.90;;;;;;4993964;28;20038;-88
2021/06/19 03:47:27;;;;;;;10.35;7.85;;;22.20;99.90;;;;;;4989322;28;20472;-84
2021/06/19 03:49:53;;;;;;;12.20;7.85;;;22.20;99.90;;;;;;4978191;28;20025;-81
2021/06/19 03:52:19;;;;;;;11.73;7.88;;;22.20;99.90;;;;;;4994475;28;20026;-85
2021/06/19 03:54:45;;;;;;;9.43;7.45;;;22.30;99.90;;;;;;4994405;28;20026;-82
2021/06/19 03:57:33;;;;;;;11.32;6.95;;;22.40;99.90;;;;;;4994743;28;21069;-83
2021/06/19 04:00:00;;;;;;;10.55;8.02;;;22.40;99.90;;;;;;4993277;28;20082;-80
2021/06/19 04:02:26;;;;;;;10.02;7.68;;;22.60;99.90;;;;;;4994578;28;20022;-82
2021/06/19 04:04:53;;;;;;;9.82;7.78;;;22.60;99.90;;;;;;4993818;28;20088;-82
2021/06/19 04:07:28;;;;;;;11.52;7.72;;;22.80;99.90;;;;;;4993917;28;20447;-81
2021/06/19 04:09:57;;;;;;;15.35;8.27;;;23.00;99.90;;;;;;4994251;28;20033;-84
2021/06/19 04:12:24;;;;;;;9.00;7.47;;;23.10;99.90;;;;;;4993940;28;20073;-81
2021/06/19 04:14:50;;;;;;;13.15;7.55;;;23.20;99.90;;;;;;4994001;28;20495;-82
2021/06/19 04:17:17;;;;;;;12.40;7.90;;;23.20;99.90;;;;;;4994145;28;20031;-83
2021/06/19 04:19:44;;;;;;;11.75;7.82;;;23.30;99.90;;;;;;4993806;28;20088;-81
2021/06/19 04:22:12;;;;;;;9.70;7.80;;;23.40;99.90;;;;;;4992812;28;20430;-81
2021/06/19 04:24:38;;;;;;;11.48;7.88;;;23.60;99.90;;;;;;4993582;28;20030;-82
2021/06/19 04:27:10;;;;;;;8.75;7.15;;;23.60;99.90;;;;;;4994079;28;20096;-81
2021/06/19 04:29:39;;;;;;;9.80;7.15;;;23.80;99.90;;;;;;4993527;28;20080;-82
2021/06/19 04:32:06;;;;;;;10.30;7.70;;;24.00;99.90;;;;;;4993444;28;20165;-82
2021/06/19 04:34:32;;;;;;;20.77;7.05;;;24.30;99.90;;;;;;4993559;28;20023;-85
2021/06/19 04:36:58;;;;;;;9.05;6.93;;;24.90;99.90;;;;;;4994051;28;20027;-83
2021/06/19 04:39:24;;;;;;;15.63;7.30;;;25.90;99.90;;;;;;4993822;28;20153;-82
2021/06/19 04:41:54;;;;;;;8.95;6.88;;;27.10;99.90;;;;;;4993425;28;20022;-86
2021/06/19 04:47:05;;;;;;;16.75;6.70;;;29.10;99.90;;;;;;4994018;28;20033;-82
2021/06/19 04:49:31;;;;;;;7.40;5.68;;;29.70;99.90;;;;;;4994005;28;20446;-82
2021/06/19 04:51:57;;;;;;;8.80;5.95;;;30.00;99.90;;;;;;4993947;28;20023;-82
2021/06/19 04:54:23;;;;;;;13.65;6.30;;;30.40;99.90;;;;;;4994221;28;20069;-82
2021/06/19 04:56:50;;;;;;;8.27;5.88;;;30.90;99.90;;;;;;4993665;28;20026;-82
2021/06/19 04:59:18;;;;;;;8.63;5.75;;;31.40;99.90;;;;;;4993968;28;20027;-84
2021/06/19 05:01:44;;;;;;;9.30;5.43;;;31.80;99.90;;;;;;4994027;28;20026;-83
2021/06/19 05:04:10;;;;;;;7.93;5.78;;;32.20;99.90;;;;;;4993672;28;20101;-86
2021/06/19 05:06:36;;;;;;;7.50;5.30;;;32.50;99.90;;;;;;4993731;28;20054;-83
2021/06/19 05:09:05;;;;;;;9.63;5.38;;;33.00;99.90;;;;;;4993857;28;20040;-83
2021/06/19 05:11:33;;;;;;;12.25;5.80;;;33.40;99.90;;;;;;4993336;28;20030;-81
2021/06/19 05:14:00;;;;;;;8.10;4.80;;;33.70;99.70;;;;;;4993604;28;20521;-86
2021/06/19 05:16:26;;;;;;;6.93;4.82;;;34.00;99.10;;;;;;4993459;28;20027;-83
2021/06/19 05:18:54;;;;;;;11.13;4.82;;;34.50;98.50;;;;;;4993386;28;20034;-81
2021/06/19 05:21:20;;;;;;;7.28;5.00;;;35.00;97.80;;;;;;4993697;28;20033;-89
2021/06/19 05:23:46;;;;;;;7.80;4.63;;;35.40;97.00;;;;;;4993011;28;20476;-83
2021/06/19 05:26:12;;;;;;;9.73;5.20;;;35.90;96.30;;;;;;4993119;28;20034;-82
2021/06/19 05:28:38;;;;;;;7.72;5.20;;;36.30;95.90;;;;;;4992866;28;20023;-82
2021/06/19 05:31:04;;;;;;;12.35;5.50;;;36.60;95.40;;;;;;4993687;28;20027;-85
2021/06/19 05:33:33;;;;;;;9.38;4.97;;;36.80;95.10;;;;;;4980954;28;20033;-84
2021/06/19 05:35:59;;;;;;;13.15;4.95;;;37.10;94.90;;;;;;4993001;28;20018;-82
2021/06/19 05:38:25;;;;;;;15.05;4.38;;;37.70;94.10;;;;;;4993616;28;20030;-84
2021/06/19 05:40:51;;;;;;;11.05;4.18;;;38.40;93.50;;;;;;5006369;28;20109;-90
2021/06/19 05:43:17;;;;;;;4.80;4.28;;;38.60;92.80;;;;;;4993506;28;20022;-83
2021/06/19 05:45:43;;;;;;;9.77;4.32;;;39.10;92.20;;;;;;4976307;28;20084;-83
2021/06/19 05:48:10;;;;;;;4.60;3.83;;;39.60;91.60;;;;;;4994199;28;20046;-83
2021/06/19 05:50:36;;;;;;;7.35;3.88;;;39.90;90.90;;;;;;4994718;28;20031;-83
2021/06/19 05:53:03;;;;;;;16.45;3.90;;;40.10;90.20;;;;;;4985271;28;20027;-82
2021/06/19 05:55:29;;;;;;;9.23;3.85;;;40.50;89.20;;;;;;4994535;28;20025;-82
2021/06/19 05:57:55;;;;;;;11.73;3.60;;;40.80;88.00;;;;;;5015588;28;20068;-82
2021/06/19 06:00:28;;;;;;;6.50;3.35;;;40.90;86.90;;;;;;4994352;28;20105;-88
2021/06/19 06:02:55;;;;;;;4.60;3.20;;;40.70;86.80;;;;;;4995097;28;20154;-82
2021/06/19 06:05:21;;;;;;;6.70;3.20;;;41.20;86.40;;;;;;4984723;28;20029;-83
2021/06/19 06:07:49;;;;;;;6.93;3.45;;;41.50;84.90;;;;;;4984677;28;20082;-82
2021/06/19 06:10:16;;;;;;;7.93;3.20;;;41.90;83.70;;;;;;4994468;28;20037;-82
2021/06/19 06:12:42;;;;;;;5.45;3.60;;;42.10;82.90;;;;;;4995241;28;20029;-83
2021/06/19 06:15:09;;;;;;;5.18;3.10;;;42.50;82.30;;;;;;4982043;28;20029;-83
2021/06/19 06:17:36;;;;;;;4.95;3.20;;;42.90;80.90;;;;;;4984851;28;20023;-84
2021/06/19 06:20:02;;;;;;;11.30;3.60;;;43.10;80.40;;;;;;4996103;28;20022;-84
2021/06/19 06:22:29;;;;;;;9.73;3.00;;;43.50;79.50;;;;;;4988754;28;20030;-84
2021/06/19 06:24:55;;;;;;;10.43;3.22;;;43.80;78.30;;;;;;4998392;28;20033;-83
2021/06/19 06:27:21;;;;;;;12.50;2.83;;;43.90;77.70;;;;;;4999633;28;20030;-83
2021/06/19 06:29:47;;;;;;;3.58;2.83;;;44.10;77.10;;;;;;4985229;28;20057;-83
2021/06/19 06:32:15;;;;;;;11.32;2.88;;;44.20;76.40;;;;;;4987864;28;20067;-89
2021/06/19 06:34:41;;;;;;;15.43;3.53;;;44.30;77.00;;;;;;4995454;28;20033;-83
2021/06/19 06:37:07;;;;;;;4.85;2.90;;;44.30;75.90;;;;;;4998578;28;20034;-84
2021/06/19 06:39:34;;;;;;;8.98;3.03;;;44.20;75.10;;;;;;4994963;28;20065;-86
2021/06/19 06:42:01;;;;;;;8.25;3.13;;;43.80;75.20;;;;;;4994405;28;20490;-84
2021/06/19 06:44:29;;;;;;;11.00;3.15;;;42.90;75.60;;;;;;4994191;28;20023;-85
2021/06/19 06:46:55;;;;;;;7.53;3.10;;;42.00;77.00;;;;;;4994841;28;20049;-84
2021/06/19 06:49:21;;;;;;;11.35;3.78;;;40.90;77.40;;;;;;4994854;28;20018;-84
2021/06/19 06:51:47;;;;;;;8.65;3.67;;;39.80;79.20;;;;;;4985996;28;20105;-84
2021/06/19 06:54:19;;;;;;;8.60;3.83;;;38.90;81.10;;;;;;4995090;28;20022;-85
2021/06/19 06:56:48;;;;;;;5.95;3.70;;;38.10;82.90;;;;;;4994182;28;20040;-84
2021/06/19 06:59:13;;;;;;;7.20;4.25;;;37.50;85.20;;;;;;4994747;28;20083;-85
2021/06/19 07:01:42;;;;;;;8.48;3.78;;;36.90;85.80;;;;;;4994179;28;20046;-83
2021/06/19 07:04:08;;;;;;;8.63;3.38;;;36.50;86.10;;;;;;4988898;28;20259;-83
2021/06/19 07:06:34;;;;;;;10.55;3.50;;;36.10;84.90;;;;;;4975942;28;20025;-82
2021/06/19 07:09:03;;;;;;;9.25;4.38;;;35.80;85.50;;;;;;4992687;28;20018;-83
2021/06/19 07:11:29;;;;;;;7.03;4.10;;;35.20;86.00;;;;;;4991788;28;20030;-82
2021/06/19 07:13:55;;;;;;;5.63;3.70;;;34.80;87.70;;;;;;4991536;28;20494;-83
2021/06/19 07:17:27;;;;;;;;;;;;;;;;;;;;;
2021/06/19 07:20:29;;;;;;;7.30;3.90;;;34.90;88.20;;;;;;4930666;28;20047;-83
2021/06/19 07:22:55;;;;;;;18.10;4.13;;;34.90;87.40;;;;;;4989937;28;20116;-84
2021/06/19 07:25:21;;;;;;;9.73;4.03;;;34.90;86.60;;;;;;4980557;28;20026;-83
2021/06/19 07:27:54;;;;;;;8.60;3.83;;;34.90;87.40;;;;;;4988026;28;20026;-83
2021/06/19 07:30:22;;;;;;;13.50;4.40;;;34.90;87.10;;;;;;4980095;28;20030;-83
2021/06/19 07:32:51;;;;;;;6.53;3.90;;;35.10;87.00;;;;;;4994751;28;20446;-83
2021/06/19 07:35:17;;;;;;;7.70;4.07;;;35.20;86.60;;;;;;4992655;28;20030;-84
2021/06/19 07:37:46;;;;;;;10.85;4.55;;;35.20;86.90;;;;;;4974848;28;20488;-83
2021/06/19 07:40:12;;;;;;;4.45;3.35;;;35.20;87.00;;;;;;4990913;28;20041;-84
2021/06/19 07:42:48;;;;;;;6.85;3.90;;;35.10;86.90;;;;;;4992940;28;20022;-83
2021/06/19 07:45:17;;;;;;;6.15;3.97;;;35.10;86.50;;;;;;4987832;28;20038;-83
2021/06/19 07:47:43;;;;;;;12.77;5.15;;;35.00;86.60;;;;;;4994087;28;20081;-84
2021/06/19 07:50:09;;;;;;;10.30;3.95;;;34.90;86.10;;;;;;4993564;28;20033;-84
2021/06/19 07:52:37;;;;;;;13.27;4.40;;;35.00;86.00;;;;;;4981165;28;20106;-85
2021/06/19 07:55:04;;;;;;;7.28;3.70;;;34.90;86.00;;;;;;4987266;28;20022;-84
2021/06/19 07:57:31;;;;;;;10.70;3.97;;;35.10;85.80;;;;;;4993436;28;20049;-86
2021/06/19 07:59:57;;;;;;;6.70;3.80;;;35.00;86.30;;;;;;4994100;28;20483;-84
2021/06/19 08:02:26;;;;;;;6.63;4.28;;;34.80;85.90;;;;;;4994223;28;20030;-84
2021/06/19 08:04:52;;;;;;;15.88;5.35;;;34.70;86.50;;;;;;4994109;28;20018;-84
2021/06/19 08:07:18;;;;;;;9.43;4.15;;;34.80;86.70;;;;;;4976480;28;20033;-83
2021/06/19 08:09:45;;;;;;;6.63;3.67;;;35.00;86.30;;;;;;4987477;28;20042;-85
2021/06/19 08:12:11;;;;;;;5.22;4.07;;;35.20;85.20;;;;;;4985610;28;20026;-84
2021/06/19 08:14:40;;;;;;;5.88;4.18;;;35.20;85.70;;;;;;4993001;28;20026;-85
2021/06/19 08:17:15;;;;;;;10.65;4.45;;;35.10;86.10;;;;;;4979126;28;20015;-85
2021/06/19 08:19:44;;;;;;;14.15;4.35;;;35.10;86.00;;;;;;4993024;28;20037;-84
2021/06/19 08:22:12;;;;;;;8.30;4.20;;;35.00;86.50;;;;;;4992831;28;20463;-84
2021/06/19 08:24:38;;;;;;;12.43;4.93;;;34.90;86.10;;;;;;4992870;28;20109;-84
2021/06/19 08:27:05;;;;;;;16.02;4.97;;;34.90;86.40;;;;;;4992475;28;20018;-85
2021/06/19 08:29:31;;;;;;;10.43;4.57;;;35.10;86.90;;;;;;4981291;28;20038;-85
2021/06/19 08:31:57;;;;;;;8.45;4.63;;;35.10;86.60;;;;;;4982003;28;20030;-85
2021/06/19 08:34:23;;;;;;;10.32;5.72;;;35.10;86.60;;;;;;4992045;28;20061;-85
2021/06/19 08:36:49;;;;;;;8.68;4.55;;;35.20;85.80;;;;;;4986803;28;20038;-85
2021/06/19 08:39:17;;;;;;;7.78;3.88;;;35.10;86.00;;;;;;4987906;28;20107;-86
2021/06/19 08:42:12;;;;;;;13.10;4.30;;;35.00;86.00;;;;;;4993957;28;20015;-86
2021/06/19 08:55:08;;;;;;;;;;;34.70;90.30;;;;;;4802484;29;20126;-87
2021/06/19 09:01:04;;;;;;;10.45;4.85;;;34.10;92.60;;;;;;4918806;28;20131;-85
2021/06/19 09:03:30;;;;;;;10.63;4.30;;;34.10;92.30;;;;;;4980073;28;20114;-88
2021/06/19 09:06:15;;;;;;;8.02;3.80;;;34.20;92.90;;;;;;4990427;28;20026;-88
2021/06/19 09:09:03;;;;;;;10.43;4.20;;;34.30;92.60;;;;;;4973632;28;20033;-86
2021/06/19 09:11:34;;;;;;;6.75;4.10;;;34.50;91.60;;;;;;4978030;28;20030;-84
2021/06/19 09:14:03;;;;;;;8.88;4.00;;;34.60;91.70;;;;;;4992470;28;20481;-85
2021/06/19 09:16:30;;;;;;;11.93;4.47;;;34.60;92.10;;;;;;4992081;28;20030;-84
2021/06/19 09:18:56;;;;;;;16.33;4.60;;;34.50;92.10;;;;;;4992222;28;20026;-85
2021/06/19 09:21:42;;;;;;;10.18;4.38;;;34.40;91.70;;;;;;4991945;28;20370;-86
2021/06/19 09:24:08;;;;;;;10.48;4.18;;;34.00;92.40;;;;;;4990317;28;20081;-86
2021/06/19 09:26:37;;;;;;;15.40;4.80;;;33.90;92.10;;;;;;4974211;28;20030;-86
2021/06/19 09:29:17;;;;;;;11.07;5.22;;;34.00;92.40;;;;;;4989799;28;20037;-85
2021/06/19 09:31:58;;;;;;;7.25;4.75;;;34.00;93.10;;;;;;4991892;28;20023;-85
2021/06/19 09:34:32;;;;;;;7.60;4.75;;;33.90;93.20;;;;;;4992162;28;20077;-85
2021/06/19 09:37:04;;;;;;;6.85;4.53;;;33.70;93.20;;;;;;4991719;28;20026;-85
2021/06/19 09:39:32;;;;;;;6.97;4.75;;;33.80;93.30;;;;;;4992041;28;20079;-85
2021/06/19 09:42:07;;;;;;;12.13;4.15;;;33.80;92.20;;;;;;4991483;28;20029;-85
2021/06/19 09:44:43;;;;;;;9.93;4.57;;;33.80;92.30;;;;;;4989946;28;20034;-88
2021/06/19 09:47:11;;;;;;;6.88;4.50;;;33.90;91.50;;;;;;4988901;28;20564;-86
2021/06/19 09:49:41;;;;;;;11.65;5.30;;;34.00;91.20;;;;;;4982052;28;20035;-88
2021/06/19 09:52:08;;;;;;;8.70;4.65;;;34.00;91.60;;;;;;4985906;28;20022;-85
2021/06/19 09:54:44;;;;;;;15.93;6.03;;;33.90;91.60;;;;;;4992759;28;20025;-84
2021/06/19 09:57:38;;;;;;;13.85;5.32;;;34.00;90.80;;;;;;4995393;28;20029;-85
2021/06/19 10:00:04;;;;;;;8.82;5.22;;;33.80;91.80;;;;;;4987212;28;20069;-86
2021/06/19 10:02:30;;;;;;;6.38;4.72;;;33.70;92.10;;;;;;4993213;28;20018;-87
2021/06/19 10:04:57;;;;;;;10.13;5.03;;;33.60;92.70;;;;;;4995184;28;20042;-85
2021/06/19 10:07:27;;;;;;;14.50;6.18;;;33.30;93.00;;;;;;4992974;28;20049;-84
2021/06/19 10:09:55;;;;;;;9.35;5.03;;;33.10;92.90;;;;;;4986382;28;20011;-85
2021/06/19 10:12:40;;;;;;;17.58;5.80;;;33.00;92.80;;;;;;4990441;28;20030;-85
2021/06/19 10:15:11;;;;;;;13.30;5.38;;;33.00;92.60;;;;;;4991148;28;20030;-84
2021/06/19 10:17:42;;;;;;;8.07;5.18;;;33.10;92.70;;;;;;4993406;28;20031;-85
2021/06/19 10:20:11;;;;;;;10.50;4.93;;;33.20;92.50;;;;;;4993516;28;20042;-84
2021/06/19 10:22:39;;;;;;;15.65;5.20;;;33.40;92.40;;;;;;4974211;28;20038;-85
2021/06/19 10:25:08;;;;;;;12.55;4.65;;;33.50;92.60;;;;;;4994145;28;20030;-89
2021/06/19 10:27:42;;;;;;;7.07;5.00;;;33.60;92.60;;;;;;4992784;28;20478;-88
2021/06/19 10:30:10;;;;;;;9.90;4.65;;;33.60;92.40;;;;;;4993361;28;20030;-83
2021/06/19 10:32:47;;;;;;;12.90;4.72;;;33.70;92.10;;;;;;4991308;28;20113;-84
2021/06/19 10:35:16;;;;;;;8.70;4.85;;;33.80;91.80;;;;;;4990103;28;20077;-85
2021/06/19 10:37:43;;;;;;;13.32;5.53;;;33.90;91.50;;;;;;4982968;28;20022;-84
2021/06/19 10:40:28;;;;;;;10.18;4.65;;;33.70;90.90;;;;;;4986011;28;20034;-84
2021/06/19 10:43:12;;;;;;;10.82;4.95;;;33.40;91.70;;;;;;4983559;28;20157;-84
2021/06/19 10:45:43;;;;;;;15.82;5.57;;;33.50;91.40;;;;;;4994093;28;20077;-84
2021/06/19 10:48:17;;;;;;;14.03;4.83;;;33.60;91.10;;;;;;4994979;28;20498;-84
2021/06/19 10:50:49;;;;;;;13.88;5.25;;;33.50;90.60;;;;;;4993804;28;20379;-84
2021/06/19 10:53:20;;;;;;;13.38;5.05;;;33.30;91.00;;;;;;4979058;28;20081;-86
2021/06/19 10:56:07;;;;;;;16.80;6.13;;;33.10;91.70;;;;;;4977640;28;20019;-84
2021/06/19 10:58:35;;;;;;;6.53;5.00;;;33.20;92.20;;;;;;4980256;28;20115;-84
2021/06/19 11:01:03;;;;;;;8.05;5.43;;;33.40;92.30;;;;;;4976324;28;20105;-86
2021/06/19 11:03:47;;;;;;;13.55;4.95;;;33.60;92.40;;;;;;4980307;28;20025;-84
2021/06/19 11:06:40;;;;;;;8.50;5.00;;;33.60;92.30;;;;;;4994247;28;20058;-86
2021/06/19 11:09:20;;;;;;;7.15;4.78;;;33.70;92.00;;;;;;4983272;28;20018;-87
2021/06/19 11:12:03;;;;;;;12.45;5.40;;;33.80;91.30;;;;;;4982377;28;20086;-84
2021/06/19 11:14:41;;;;;;;11.85;5.35;;;33.50;91.70;;;;;;4974900;28;20026;-84
2021/06/19 11:17:10;;;;;;;12.23;5.00;;;33.40;92.00;;;;;;4991467;28;20073;-85
2021/06/19 11:19:49;;;;;;;14.40;5.60;;;33.40;92.00;;;;;;4983335;28;20038;-84
2021/06/19 11:22:29;;;;;;;12.70;5.00;;;33.50;92.20;;;;;;4978705;28;20019;-85
2021/06/19 11:25:14;;;;;;;13.88;4.90;;;33.30;90.80;;;;;;4981208;28;20023;-85
2021/06/19 11:28:09;;;;;;;6.82;4.70;;;33.30;90.60;;;;;;4974581;28;20770;-85
2021/06/19 11:30:37;;;;;;;11.15;4.97;;;33.30;91.20;;;;;;4974124;28;20376;-84
2021/06/19 11:33:22;;;;;;;8.00;4.60;;;33.40;91.70;;;;;;4990452;28;20331;-88
2021/06/19 11:35:59;;;;;;;10.30;5.25;;;33.40;91.00;;;;;;4981725;28;20019;-86
2021/06/19 11:38:42;;;;;;;6.60;5.25;;;33.40;91.30;;;;;;4979522;28;20030;-85
2021/06/19 11:41:18;;;;;;;6.57;4.45;;;33.40;91.70;;;;;;4991974;28;20037;-88
2021/06/19 11:43:49;;;;;;;9.45;4.40;;;33.20;91.60;;;;;;4985952;28;20027;-86
2021/06/19 11:46:24;;;;;;;10.50;4.93;;;33.00;91.60;;;;;;4976196;28;20019;-84
2021/06/19 11:48:54;;;;;;;6.63;4.60;;;32.90;91.70;;;;;;4996419;28;20029;-85
2021/06/19 11:51:31;;;;;;;9.15;4.35;;;32.80;92.60;;;;;;4993346;28;20018;-86
2021/06/19 11:53:58;;;;;;;19.88;4.60;;;32.50;92.90;;;;;;4993352;28;20030;-87
2021/06/19 11:56:28;;;;;;;6.40;4.32;;;32.50;93.30;;;;;;4993207;28;20026;-88
2021/06/19 11:59:04;;;;;;;6.22;4.18;;;32.40;94.30;;;;;;4992786;28;20130;-87
2021/06/19 12:01:41;;;;;;;13.75;3.72;;;32.30;94.30;;;;;;4992715;28;20080;-88
2021/06/19 12:04:17;;;;;;;13.23;4.30;;;32.20;93.40;;;;;;4992940;28;20022;-85
2021/06/19 12:06:57;;;;;;;7.07;4.28;;;32.20;93.90;;;;;;4993366;28;20014;-85
2021/06/19 12:09:34;;;;;;;4.88;4.03;;;32.10;95.60;;;;;;4993262;28;20023;-85
2021/06/19 12:12:03;;;;;;;6.20;4.70;;;31.70;96.20;;;;;;4993063;28;20018;-87
2021/06/19 12:14:32;;;;;;;9.48;4.85;;;31.50;96.30;;;;;;4993305;28;20107;-85
2021/06/19 12:17:02;;;;;;;8.30;4.35;;;31.30;95.50;;;;;;4980261;28;20034;-87
2021/06/19 12:19:31;;;;;;;17.63;4.70;;;31.20;93.90;;;;;;4973656;28;20038;-88
2021/06/19 12:21:59;;;;;;;9.95;4.57;;;31.10;94.50;;;;;;4975607;28;20022;-84
2021/06/19 12:24:37;;;;;;;9.20;5.18;;;31.00;93.70;;;;;;4992813;28;20056;-87
2021/06/19 12:27:09;;;;;;;10.60;4.90;;;30.90;93.90;;;;;;4990046;28;20022;-87
2021/06/19 12:29:42;;;;;;;11.40;5.03;;;30.80;94.40;;;;;;4982580;28;20543;-85
2021/06/19 12:32:26;;;;;;;11.18;4.75;;;30.70;94.70;;;;;;4981748;28;20455;-88
2021/06/19 12:34:56;;;;;;;14.20;5.45;;;30.70;94.30;;;;;;4996322;28;20022;-89
2021/06/19 12:37:28;;;;;;;8.57;4.43;;;30.60;93.80;;;;;;5002566;28;20368;-87
2021/06/19 12:39:54;;;;;;;15.35;4.75;;;30.60;94.20;;;;;;4992242;28;20470;-88
2021/06/19 12:42:35;;;;;;;6.97;4.45;;;30.60;95.20;;;;;;4992126;28;20391;-87
2021/06/19 12:45:16;;;;;;;5.60;4.55;;;30.60;96.50;;;;;;4992566;28;20023;-88
2021/06/19 12:47:45;;;;;;;5.18;4.13;;;30.40;96.60;;;;;;4978282;28;20396;-87
2021/06/19 12:50:20;;;;;;;6.25;4.88;;;30.40;97.00;;;;;;4983713;28;20396;-84
2021/06/19 12:52:56;;;;;;;10.93;4.45;;;30.40;98.70;;;;;;4989477;28;20068;-88
2021/06/19 12:55:23;;;;;;;7.30;4.45;;;30.30;98.40;;;;;;4975246;28;20380;-85
2021/06/19 12:58:15;;;;;;;8.38;5.15;;;30.40;97.90;;;;;;4974789;28;20039;-84
2021/06/19 13:00:43;;;;;;;11.88;5.10;;;30.50;97.40;;;;;;4979122;28;20034;-87
2021/06/19 13:03:10;;;;;;;7.50;4.40;;;30.30;98.60;;;;;;4974339;28;20385;-84
2021/06/19 13:05:56;;;;;;;7.13;4.10;;;30.30;98.20;;;;;;4982414;28;20065;-89
2021/06/19 13:08:25;;;;;;;12.43;4.70;;;30.20;99.20;;;;;;4974849;28;20026;-84
2021/06/19 13:10:52;;;;;;;9.93;4.22;;;30.30;99.50;;;;;;4989793;28;20809;-84
2021/06/19 13:28:10;;;;;;;11.27;5.43;;;30.00;99.90;;;;;;4929892;29;20109;-85
2021/06/19 14:13:04;;;;;;;;;;;;;;;;;;;;;
2021/06/19 14:23:45;;;;;;;;;;;;;;;;;;;;;
2021/06/19 14:36:59;;;;;;;;;;;;;;;;;;;;;
2021/06/19 14:43:48;;;;;;;;;;;;;;;;;;;;;